createdAt,value
2018-08-19T00:00:02.402Z,17.5
2018-08-19T00:15:02.716Z,17.4
2018-08-19T00:30:03.111Z,17.4
2018-08-19T00:45:02.403Z,17.3
2018-08-19T01:00:02.713Z,17.2
2018-08-19T01:15:03.032Z,17.2
2018-08-19T01:30:02.627Z,17.1
2018-08-19T01:45:02.934Z,17.1
2018-08-19T02:00:03.266Z,17
2018-08-19T02:15:02.607Z,16.9
2018-08-19T02:30:03.018Z,16.9
2018-08-19T02:45:02.330Z,16.9
2018-08-19T03:00:02.642Z,16.8
2018-08-19T03:15:02.983Z,16.8
2018-08-19T03:30:02.483Z,16.7
2018-08-19T03:45:02.803Z,16.6
2018-08-19T04:00:03.107Z,16.6
2018-08-19T04:15:02.416Z,16.6
2018-08-19T04:30:02.801Z,16.5
2018-08-19T04:45:03.116Z,16.4
2018-08-19T05:00:02.440Z,16.4
2018-08-19T05:15:02.787Z,16.4
2018-08-19T05:30:03.193Z,16.4
2018-08-19T05:45:02.488Z,16.4
2018-08-19T06:00:02.812Z,16.4
2018-08-19T06:15:03.134Z,16.3
2018-08-19T06:30:02.696Z,16.3
2018-08-19T06:45:03.084Z,16.4
2018-08-19T07:00:02.660Z,16.4
2018-08-19T07:15:02.990Z,16.4
2018-08-19T07:30:02.384Z,16.4
2018-08-19T07:45:02.711Z,16.4
2018-08-19T08:00:03.005Z,16.4
2018-08-19T08:15:02.309Z,16.5
2018-08-19T08:30:02.751Z,16.6
2018-08-19T08:45:03.270Z,16.6
2018-08-19T09:00:02.612Z,16.7
2018-08-19T09:15:02.894Z,16.8
2018-08-19T09:30:02.321Z,16.8
2018-08-19T09:45:02.602Z,16.9
2018-08-19T10:00:02.923Z,17
2018-08-19T10:15:03.231Z,17.1
2018-08-19T10:30:02.625Z,17.2
2018-08-19T10:45:02.924Z,17.2
2018-08-19T11:00:03.347Z,17.3
2018-08-19T11:15:02.702Z,17.4
2018-08-19T11:30:03.110Z,17.6
2018-08-19T11:45:02.429Z,17.7
2018-08-19T12:00:02.749Z,17.8
2018-08-19T12:15:03.074Z,17.9
2018-08-19T12:30:02.603Z,18
2018-08-19T12:45:02.895Z,18.1
2018-08-19T13:00:03.216Z,18.2
2018-08-19T13:15:02.602Z,18.2
2018-08-19T13:30:02.985Z,18.3
2018-08-19T13:45:02.353Z,18.4
2018-08-19T14:00:02.703Z,18.5
2018-08-19T14:15:03.007Z,18.6
2018-08-19T14:30:02.592Z,18.7
2018-08-19T14:45:02.931Z,18.7
2018-08-19T15:00:03.243Z,18.7
2018-08-19T15:15:02.593Z,18.7
2018-08-19T15:30:02.995Z,18.8
2018-08-19T15:45:02.376Z,18.8
2018-08-19T16:00:02.714Z,18.8
2018-08-19T16:15:03.029Z,18.9
2018-08-19T16:30:02.442Z,18.9
2018-08-19T16:45:02.738Z,18.9
2018-08-19T17:00:03.092Z,18.9
2018-08-19T17:15:02.418Z,18.9
2018-08-19T17:30:02.826Z,18.9
2018-08-19T17:45:03.126Z,18.9
2018-08-19T18:00:02.498Z,18.9
2018-08-19T18:15:02.930Z,18.9
2018-08-19T18:30:02.321Z,18.9
2018-08-19T18:45:02.622Z,18.9
2018-08-19T19:00:02.955Z,18.9
2018-08-19T19:15:03.254Z,18.9
2018-08-19T19:30:02.663Z,18.9
2018-08-19T19:45:02.985Z,18.9
2018-08-19T20:00:02.290Z,18.8
2018-08-19T20:15:02.715Z,18.8
2018-08-19T20:30:03.079Z,18.8
2018-08-19T20:45:02.385Z,18.8
2018-08-19T21:00:02.776Z,18.7
2018-08-19T21:15:03.160Z,18.7
2018-08-19T21:30:02.654Z,18.6
2018-08-19T21:45:03.109Z,18.6
2018-08-19T22:00:02.436Z,18.6
2018-08-19T22:15:02.809Z,18.5
2018-08-19T22:30:03.201Z,18.4
2018-08-19T22:45:02.488Z,18.4
2018-08-19T23:00:02.817Z,18.3
2018-08-19T23:15:03.084Z,18.2
2018-08-19T23:30:02.507Z,18.2
2018-08-19T23:45:02.810Z,18.1
